createdAt,value
2023-02-08T00:00:35.769Z,102585.64
2023-02-08T00:01:39.804Z,102583.84
2023-02-08T00:02:43.790Z,102582.95
2023-02-08T00:03:48.575Z,102582.95
2023-02-08T00:04:52.591Z,102586.34
2023-02-08T00:05:56.500Z,102582.94
2023-02-08T00:07:00.474Z,102585.55
2023-02-08T00:08:04.558Z,102597.62
2023-02-08T00:09:08.545Z,102595.91
2023-02-08T00:10:12.938Z,102595.91
2023-02-08T00:11:16.899Z,102595.91
2023-02-08T00:12:20.820Z,102598.50
2023-02-08T00:13:25.194Z,102596.77
2023-02-08T00:14:29.227Z,102597.53
2023-02-08T00:15:33.078Z,102597.53
2023-02-08T00:16:36.995Z,102595.83
2023-02-08T00:17:40.849Z,102587.98
2023-02-08T00:18:44.709Z,102594.04
2023-02-08T00:19:48.689Z,102594.09
2023-02-08T00:20:52.758Z,102588.89
2023-02-08T00:21:56.605Z,102592.41
2023-02-08T00:23:00.457Z,102595.78
2023-02-08T00:24:04.520Z,102594.09
2023-02-08T00:25:09.023Z,102595.78
2023-02-08T00:26:13.819Z,102599.24
2023-02-08T00:27:18.274Z,102601.80
2023-02-08T00:28:22.395Z,102597.41
2023-02-08T00:29:26.521Z,102590.40
2023-02-08T00:30:30.629Z,102597.34
2023-02-08T00:31:34.669Z,102603.41
2023-02-08T00:32:38.738Z,102604.17
2023-02-08T00:33:42.750Z,102604.17
2023-02-08T00:34:46.719Z,102602.21
2023-02-08T00:35:50.837Z,102598.79
2023-02-08T00:36:54.873Z,102598.79
2023-02-08T00:37:58.902Z,102608.16
2023-02-08T00:39:03.260Z,102607.29
2023-02-08T00:40:07.960Z,102607.29
2023-02-08T00:41:12.064Z,102603.70
2023-02-08T00:42:16.091Z,102602.89
2023-02-08T00:43:20.091Z,102604.62
2023-02-08T00:44:24.123Z,102600.98
2023-02-08T00:45:28.085Z,102609.53
2023-02-08T00:46:32.097Z,102610.46
2023-02-08T00:47:35.995Z,102610.46
2023-02-08T00:48:39.946Z,102603.52
2023-02-08T00:49:43.924Z,102607.03
2023-02-08T00:51:01.960Z,102610.39
2023-02-08T00:52:05.985Z,102609.65
2023-02-08T00:53:09.928Z,102613.87
2023-02-08T00:54:16.260Z,102615.64
2023-02-08T00:55:20.366Z,102625.14
2023-02-08T00:56:24.405Z,102626.92
2023-02-08T00:57:28.446Z,102624.32
2023-02-08T00:58:32.470Z,102624.32
2023-02-08T00:59:36.414Z,102629.53
2023-02-08T01:00:40.710Z,102629.53
2023-02-08T01:01:44.943Z,102630.34
2023-02-08T01:02:48.871Z,102630.28
2023-02-08T01:03:52.898Z,102636.41
2023-02-08T01:04:56.871Z,102634.67
2023-02-08T01:06:07.081Z,102642.41
2023-02-08T01:07:11.173Z,102642.48
2023-02-08T01:08:15.662Z,102633.75
2023-02-08T01:09:19.714Z,102638.95
2023-02-08T01:10:23.761Z,102649.36
2023-02-08T01:11:27.777Z,102640.73
2023-02-08T01:12:31.797Z,102644.14
2023-02-08T01:13:36.736Z,102651.95
2023-02-08T01:14:41.320Z,102651.06
2023-02-08T01:15:45.261Z,102657.09
2023-02-08T01:16:49.651Z,102657.09
2023-02-08T01:17:58.122Z,102651.88
2023-02-08T01:19:03.957Z,102648.40
2023-02-08T01:20:08.859Z,102648.40
2023-02-08T01:21:15.647Z,102657.89
2023-02-08T01:22:19.515Z,102655.30
2023-02-08T01:23:23.434Z,102655.30
2023-02-08T01:24:27.631Z,102660.56
2023-02-08T01:25:31.742Z,102648.41
2023-02-08T01:26:37.640Z,102648.41
2023-02-08T01:27:41.733Z,102656.28
2023-02-08T01:28:46.297Z,102661.34
2023-02-08T01:29:50.258Z,102663.95
2023-02-08T01:30:54.323Z,102662.95
2023-02-08T01:31:58.337Z,102666.50
2023-02-08T01:33:02.231Z,102668.23
2023-02-08T01:34:07.656Z,102671.68
2023-02-08T01:35:11.650Z,102670.83
2023-02-08T01:36:16.284Z,102676.77
2023-02-08T01:37:20.162Z,102674.21
2023-02-08T01:38:24.013Z,102683.81
2023-02-08T01:39:27.933Z,102682.81
2023-02-08T01:40:31.968Z,102686.36
2023-02-08T01:41:39.663Z,102681.09
2023-02-08T01:42:43.636Z,102687.14
2023-02-08T01:44:08.331Z,102681.89
2023-02-08T01:45:18.045Z,102688.69
2023-02-08T01:46:22.117Z,102688.69
2023-02-08T01:47:26.754Z,102687.03
2023-02-08T01:48:33.610Z,102687.89
2023-02-08T01:49:38.312Z,102686.08
2023-02-08T01:50:57.449Z,102688.67
2023-02-08T01:52:04.341Z,102688.67
2023-02-08T01:53:08.702Z,102697.30
2023-02-08T01:54:14.967Z,102702.48
2023-02-08T01:55:24.462Z,102700.74
2023-02-08T01:56:31.403Z,102690.29
2023-02-08T01:57:35.570Z,102701.55
2023-02-08T01:58:42.506Z,102693.69
2023-02-08T01:59:49.434Z,102693.69
2023-02-08T02:00:53.806Z,102696.22
2023-02-08T02:01:59.328Z,102694.47
2023-02-08T02:03:04.945Z,102697.07
2023-02-08T02:04:09.506Z,102706.55
2023-02-08T02:05:14.530Z,102704.80
2023-02-08T02:06:21.473Z,102711.73
2023-02-08T02:07:28.501Z,102711.66
2023-02-08T02:08:32.616Z,102720.28
2023-02-08T02:09:42.326Z,102715.94
2023-02-08T02:10:48.900Z,102726.31
2023-02-08T02:11:56.566Z,102726.25
2023-02-08T02:13:09.758Z,102722.80
2023-02-08T02:14:13.962Z,102724.45
2023-02-08T02:15:18.191Z,102724.45
2023-02-08T02:16:22.223Z,102719.09
2023-02-08T02:17:26.352Z,102727.84
2023-02-08T02:18:34.247Z,102720.84
2023-02-08T02:19:57.820Z,102721.64
2023-02-08T02:21:40.862Z,102723.31
2023-02-08T02:22:53.770Z,102731.11
2023-02-08T02:24:23.008Z,102727.53
2023-02-08T02:25:41.441Z,102731.87
2023-02-08T02:27:07.591Z,102736.91
2023-02-08T02:28:28.732Z,102731.61
2023-02-08T02:29:52.029Z,102728.11
2023-02-08T02:31:27.229Z,102728.11
2023-02-08T02:32:34.180Z,102725.52
2023-02-08T02:34:01.843Z,102732.45
2023-02-08T02:35:17.546Z,102732.45
2023-02-08T02:36:47.170Z,102744.41
2023-02-08T02:37:56.755Z,102737.38
2023-02-08T02:39:12.423Z,102738.36
2023-02-08T02:42:07.951Z,102746.98
2023-02-08T02:43:26.684Z,102741.70
2023-02-08T02:44:49.630Z,102740.83
2023-02-08T02:46:04.976Z,102734.70
2023-02-08T02:47:26.857Z,102749.50
2023-02-08T02:48:39.770Z,102738.17
2023-02-08T02:49:49.495Z,102738.26
2023-02-08T02:50:56.575Z,102738.26
2023-02-08T02:52:06.158Z,102742.64
2023-02-08T02:53:35.887Z,102742.64
2023-02-08T02:54:47.966Z,102745.16
2023-02-08T02:55:55.015Z,102739.02
2023-02-08T02:57:01.983Z,102746.02
2023-02-08T02:58:08.372Z,102737.44
2023-02-08T02:59:14.658Z,102734.77
2023-02-08T03:00:25.244Z,102745.16
2023-02-08T03:01:29.390Z,102737.30
2023-02-08T03:02:33.293Z,102741.63
2023-02-08T03:03:37.553Z,102746.81
2023-02-08T03:04:44.466Z,102746.81
2023-02-08T03:05:50.068Z,102747.75
2023-02-08T03:07:11.808Z,102751.16
2023-02-08T03:08:33.528Z,102751.14
2023-02-08T03:09:49.627Z,102748.48
2023-02-08T03:11:05.290Z,102762.40
2023-02-08T03:12:18.280Z,102756.41
2023-02-08T03:13:43.478Z,102755.34
2023-02-08T03:14:50.461Z,102711.25
2023-02-08T03:16:09.065Z,102760.51
2023-02-08T03:17:18.854Z,102760.51
2023-02-08T03:18:25.825Z,102756.83
2023-02-08T03:19:35.555Z,102768.22
2023-02-08T03:20:45.295Z,102762.03
2023-02-08T03:21:55.205Z,102767.22
2023-02-08T03:23:04.770Z,102761.13
2023-02-08T03:24:32.716Z,102766.34
2023-02-08T03:25:39.627Z,102761.94
2023-02-08T03:27:03.117Z,102755.79
2023-02-08T03:28:10.178Z,102767.92
2023-02-08T03:29:36.314Z,102761.86
2023-02-08T03:30:43.695Z,102765.30
2023-02-08T03:31:50.945Z,102765.30
2023-02-08T03:33:00.735Z,102779.09
2023-02-08T03:34:15.937Z,102775.48
2023-02-08T03:35:31.824Z,102779.02
2023-02-08T03:36:44.520Z,102771.98
2023-02-08T03:39:09.390Z,102779.02
2023-02-08T03:40:19.601Z,102784.29
2023-02-08T03:41:29.177Z,102784.29
2023-02-08T03:42:36.006Z,102781.75
2023-02-08T03:43:45.464Z,102778.14
2023-02-08T03:44:55.324Z,102778.28
2023-02-08T03:46:23.295Z,102778.28
2023-02-08T03:47:30.334Z,102779.95
2023-02-08T03:48:37.457Z,102782.55
2023-02-08T03:50:38.806Z,102774.61
2023-02-08T03:51:03.219Z,102774.61
2023-02-08T03:52:10.195Z,102794.50
2023-02-08T03:53:17.254Z,102786.77
2023-02-08T03:54:24.272Z,102789.22
2023-02-08T03:55:31.346Z,102792.53
2023-02-08T03:56:41.016Z,102780.41
2023-02-08T03:57:47.943Z,102792.63
2023-02-08T03:59:00.853Z,102792.63
2023-02-08T04:00:10.884Z,102796.83
2023-02-08T04:01:17.940Z,102797.64
2023-02-08T04:02:24.397Z,102796.83
2023-02-08T04:03:30.966Z,102795.13
2023-02-08T04:04:38.355Z,102802.83
2023-02-08T04:05:42.926Z,102806.36
2023-02-08T04:06:47.230Z,102814.09
2023-02-08T04:07:52.183Z,102805.48
2023-02-08T04:08:56.132Z,102811.49
2023-02-08T04:10:00.204Z,102811.55
2023-02-08T04:11:04.287Z,102820.19
2023-02-08T04:12:08.518Z,102816.66
2023-02-08T04:13:12.491Z,102819.19
2023-02-08T04:14:16.767Z,102820.81
2023-02-08T04:15:20.717Z,102819.16
2023-02-08T04:16:24.766Z,102822.63
2023-02-08T04:17:28.663Z,102828.70
2023-02-08T04:18:32.608Z,102833.04
2023-02-08T04:19:36.531Z,102832.92
2023-02-08T04:20:40.987Z,102841.52
2023-02-08T04:21:45.138Z,102841.52
2023-02-08T04:22:49.155Z,102840.64
2023-02-08T04:23:53.193Z,102847.40
2023-02-08T04:24:57.177Z,102838.80
2023-02-08T04:26:01.153Z,102838.80
2023-02-08T04:27:06.110Z,102849.89
2023-02-08T04:28:10.270Z,102847.14
2023-02-08T04:29:14.486Z,102851.62
2023-02-08T04:30:18.830Z,102854.15
2023-02-08T04:31:24.430Z,102852.39
2023-02-08T04:32:28.582Z,102842.02
2023-02-08T04:33:32.674Z,102842.11
2023-02-08T04:34:36.542Z,102840.30
2023-02-08T04:35:41.746Z,102854.92
2023-02-08T04:36:45.862Z,102849.70
2023-02-08T04:37:49.911Z,102857.59
2023-02-08T04:38:54.035Z,102857.59
2023-02-08T04:39:58.074Z,102861.03
2023-02-08T04:41:02.090Z,102856.62
2023-02-08T04:42:06.228Z,102853.86
2023-02-08T04:43:10.281Z,102859.92
2023-02-08T04:44:14.310Z,102862.48
2023-02-08T04:45:18.576Z,102861.45
2023-02-08T04:46:46.595Z,102870.11
2023-02-08T04:47:50.564Z,102870.11
2023-02-08T04:48:54.470Z,102870.89
2023-02-08T04:49:58.418Z,102863.20
2023-02-08T04:51:02.505Z,102872.70
2023-02-08T04:52:06.413Z,102875.30
2023-02-08T04:53:10.489Z,102870.92
2023-02-08T04:54:14.330Z,102869.33
2023-02-08T04:55:18.279Z,102868.33
2023-02-08T04:56:22.256Z,102872.61
2023-02-08T04:57:26.198Z,102863.95
2023-02-08T04:58:30.024Z,102870.89
2023-02-08T04:59:33.958Z,102877.02
2023-02-08T05:00:40.037Z,102871.77
2023-02-08T05:01:44.213Z,102870.11
2023-02-08T05:02:48.139Z,102877.05
2023-02-08T05:03:52.095Z,102876.95
2023-02-08T05:04:56.019Z,102883.89
2023-02-08T05:06:02.040Z,102883.11
2023-02-08T05:07:06.029Z,102882.14
2023-02-08T05:08:09.951Z,102881.27
2023-02-08T05:09:13.830Z,102881.27
2023-02-08T05:10:18.768Z,102884.64
2023-02-08T05:11:24.784Z,102888.10
2023-02-08T05:12:28.717Z,102890.59
2023-02-08T05:13:32.692Z,102893.09
2023-02-08T05:14:36.679Z,102891.37
2023-02-08T05:15:42.243Z,102894.13
2023-02-08T05:16:47.816Z,102896.83
2023-02-08T05:17:51.798Z,102899.32
2023-02-08T05:18:58.876Z,102899.32
2023-02-08T05:20:03.713Z,102906.06
2023-02-08T05:21:08.397Z,102901.69
2023-02-08T05:22:18.299Z,102903.56
2023-02-08T05:23:22.401Z,102900.13
2023-02-08T05:24:26.352Z,102901.81
2023-02-08T05:25:31.890Z,102896.63
2023-02-08T05:26:39.166Z,102902.02
2023-02-08T05:27:43.086Z,102895.78
2023-02-08T05:28:47.061Z,102901.17
2023-02-08T05:29:50.987Z,102896.86
2023-02-08T05:30:55.181Z,102903.77
2023-02-08T05:31:59.299Z,102898.75
2023-02-08T05:33:03.229Z,102898.75
2023-02-08T05:34:07.245Z,102900.66
2023-02-08T05:35:11.207Z,102900.66
2023-02-08T05:36:15.208Z,102911.34
2023-02-08T05:37:19.161Z,102911.47
2023-02-08T05:38:23.007Z,102911.47
2023-02-08T05:39:26.866Z,102919.34
2023-02-08T05:40:30.961Z,102919.34
2023-02-08T05:41:34.872Z,102922.98
2023-02-08T05:42:38.892Z,102924.83
2023-02-08T05:43:42.996Z,102930.12
2023-02-08T05:44:47.008Z,102930.12
2023-02-08T05:45:51.694Z,102937.91
2023-02-08T05:46:55.626Z,102933.84
2023-02-08T05:47:59.609Z,102935.47
2023-02-08T05:49:04.107Z,102939.30
2023-02-08T05:50:08.556Z,102937.70
2023-02-08T05:51:12.468Z,102936.86
2023-02-08T05:52:16.378Z,102936.11
2023-02-08T05:53:21.370Z,102933.63
2023-02-08T05:54:26.521Z,102937.98
2023-02-08T05:55:30.518Z,102939.17
2023-02-08T05:56:34.524Z,102943.58
2023-02-08T05:57:38.480Z,102946.23
2023-02-08T05:58:42.495Z,102936.81
2023-02-08T05:59:46.483Z,102936.81
2023-02-08T06:00:50.565Z,102941.50
2023-02-08T06:01:54.520Z,102942.49
2023-02-08T06:02:59.118Z,102946.99
2023-02-08T06:04:03.337Z,102947.08
2023-02-08T06:05:07.865Z,102947.17
2023-02-08T06:06:12.385Z,102942.14
2023-02-08T06:07:16.650Z,102944.02
2023-02-08T06:08:20.520Z,102940.62
2023-02-08T06:09:24.552Z,102945.16
2023-02-08T06:10:28.558Z,102945.16
2023-02-08T06:11:32.452Z,102942.70
2023-02-08T06:12:36.420Z,102945.44
2023-02-08T06:13:40.453Z,102941.05
2023-02-08T06:14:44.425Z,102949.84
2023-02-08T06:15:48.382Z,102941.36
2023-02-08T06:16:52.403Z,102738.81
2023-02-08T06:17:56.763Z,102951.85
2023-02-08T06:19:00.929Z,102955.47
2023-02-08T06:20:05.656Z,102951.20
2023-02-08T06:21:13.593Z,102943.56
2023-02-08T06:22:19.157Z,102958.56
2023-02-08T06:23:23.940Z,102956.98
2023-02-08T06:24:28.070Z,102962.28
2023-02-08T06:25:32.171Z,102958.02
2023-02-08T06:26:36.241Z,102958.02
2023-02-08T06:27:40.212Z,102959.23
2023-02-08T06:28:44.102Z,102959.23
2023-02-08T06:29:48.126Z,102956.13
2023-02-08T06:30:52.931Z,102966.69
2023-02-08T06:31:57.064Z,102962.36
2023-02-08T06:33:01.135Z,102962.51
2023-02-08T06:34:08.161Z,102964.21
2023-02-08T06:35:12.970Z,102964.21
2023-02-08T06:36:18.869Z,102962.78
2023-02-08T06:37:23.009Z,102967.37
2023-02-08T06:38:27.077Z,102967.37
2023-02-08T06:39:31.033Z,102971.94
2023-02-08T06:40:35.057Z,102968.52
2023-02-08T06:41:38.969Z,102968.58
2023-02-08T06:42:43.011Z,102974.83
2023-02-08T06:43:47.077Z,102979.19
2023-02-08T06:44:55.168Z,102984.66
2023-02-08T06:45:56.841Z,102987.24
2023-02-08T06:47:00.960Z,102986.39
2023-02-08T06:48:05.203Z,102987.31
2023-02-08T06:49:09.190Z,102981.41
2023-02-08T06:50:13.291Z,102990.20
2023-02-08T06:51:17.266Z,102988.23
2023-02-08T06:52:22.059Z,102988.45
2023-02-08T06:53:26.025Z,102978.02
2023-02-08T06:54:30.067Z,102975.55
2023-02-08T06:55:34.155Z,102979.08
2023-02-08T06:56:38.276Z,102982.67
2023-02-08T06:57:42.397Z,102987.09
2023-02-08T06:58:46.415Z,102996.72
2023-02-08T06:59:50.384Z,102989.01
2023-02-08T07:00:54.461Z,102982.17
2023-02-08T07:02:01.108Z,102992.80
2023-02-08T07:03:04.132Z,102990.17
2023-02-08T07:04:08.154Z,102989.43
2023-02-08T07:05:12.216Z,102991.17
2023-02-08T07:06:19.677Z,102989.67
2023-02-08T07:07:23.732Z,102989.67
2023-02-08T07:08:27.731Z,102988.05
2023-02-08T07:09:33.271Z,102992.39
2023-02-08T07:10:40.123Z,102979.98
2023-02-08T07:11:44.788Z,102992.09
2023-02-08T07:12:48.709Z,102991.29
2023-02-08T07:13:53.203Z,102986.11
2023-02-08T07:14:57.127Z,102983.58
2023-02-08T07:16:01.170Z,102985.59
2023-02-08T07:17:05.850Z,102989.30
2023-02-08T07:18:09.823Z,102993.72
2023-02-08T07:19:13.752Z,102992.89
2023-02-08T07:20:17.997Z,102990.29
2023-02-08T07:21:22.033Z,102990.29
2023-02-08T07:22:25.961Z,102990.39
2023-02-08T07:23:29.825Z,102990.56
2023-02-08T07:24:35.055Z,102987.06
2023-02-08T07:25:38.998Z,102984.52
2023-02-08T07:26:43.045Z,102990.66
2023-02-08T07:27:46.918Z,102982.81
2023-02-08T07:28:50.873Z,102987.34
2023-02-08T07:29:55.037Z,102990.92
2023-02-08T07:30:59.162Z,102989.28
2023-02-08T07:32:06.724Z,102989.47
2023-02-08T07:33:10.677Z,102987.80
2023-02-08T07:34:14.688Z,102987.80
2023-02-08T07:35:20.739Z,102987.88
2023-02-08T07:36:24.374Z,102987.88
2023-02-08T07:37:28.666Z,102988.62
2023-02-08T07:38:34.190Z,102989.63
2023-02-08T07:39:39.674Z,102991.42
2023-02-08T07:40:43.864Z,102991.56
2023-02-08T07:41:48.617Z,102991.66
2023-02-08T07:42:53.981Z,102986.53
2023-02-08T07:43:59.802Z,102988.31
2023-02-08T07:45:05.760Z,102997.02
2023-02-08T07:46:13.052Z,102990.00
2023-02-08T07:47:21.068Z,102994.50
2023-02-08T07:48:30.901Z,103000.51
2023-02-08T07:49:49.360Z,103002.26
2023-02-08T07:50:45.234Z,103002.26
2023-02-08T07:51:49.530Z,103003.16
2023-02-08T07:52:53.544Z,102999.73
2023-02-08T07:53:59.349Z,102998.12
2023-02-08T07:55:08.205Z,103001.75
2023-02-08T07:56:14.488Z,103005.31
2023-02-08T07:57:20.984Z,103005.31
2023-02-08T07:58:24.713Z,103003.63
2023-02-08T07:59:36.261Z,103001.95
2023-02-08T08:00:42.386Z,103001.95
2023-02-08T08:01:52.568Z,102404.02
2023-02-08T08:02:56.836Z,102999.47
2023-02-08T08:04:02.015Z,102999.47
2023-02-08T08:05:06.308Z,103003.00
2023-02-08T08:06:11.926Z,103011.89
2023-02-08T08:07:18.718Z,103009.28
2023-02-08T08:08:24.237Z,103002.34
2023-02-08T08:09:28.387Z,103001.58
2023-02-08T08:10:34.192Z,103006.06
2023-02-08T08:11:39.703Z,102997.34
2023-02-08T08:12:45.265Z,103010.38
2023-02-08T08:13:52.643Z,103001.77
2023-02-08T08:15:09.105Z,103011.37
2023-02-08T08:16:11.577Z,103009.66
2023-02-08T08:17:18.233Z,102998.36
2023-02-08T08:18:38.481Z,103011.45
2023-02-08T08:19:32.788Z,103010.58
2023-02-08T08:20:40.896Z,103011.52
2023-02-08T08:21:45.575Z,103019.41
2023-02-08T08:22:49.600Z,103014.17
2023-02-08T08:23:53.580Z,103014.17
2023-02-08T08:24:59.037Z,103005.45
2023-02-08T08:26:15.206Z,103001.89
2023-02-08T08:27:21.251Z,103018.50
2023-02-08T08:28:25.131Z,103016.83
2023-02-08T08:29:31.286Z,103015.95
2023-02-08T08:30:38.626Z,103012.54
2023-02-08T08:31:44.406Z,103017.04
2023-02-08T08:32:48.780Z,103023.05
2023-02-08T08:34:01.112Z,103023.05
2023-02-08T08:35:15.611Z,103026.50
2023-02-08T08:36:21.301Z,103023.12
2023-02-08T08:37:26.686Z,103018.86
2023-02-08T08:38:30.856Z,103025.07
2023-02-08T08:39:36.572Z,103026.05
2023-02-08T08:40:42.469Z,103022.61
2023-02-08T08:41:48.520Z,103016.47
2023-02-08T08:42:55.000Z,103027.05
2023-02-08T08:44:01.150Z,103027.05
2023-02-08T08:45:05.193Z,103025.39
2023-02-08T08:46:10.188Z,103024.57
2023-02-08T08:47:18.376Z,103034.30
2023-02-08T08:48:21.471Z,103030.81
2023-02-08T08:49:27.451Z,103034.36
2023-02-08T08:50:31.802Z,103032.64
2023-02-08T08:51:35.922Z,103026.50
2023-02-08T08:52:39.890Z,103034.36
2023-02-08T08:53:45.573Z,103037.80
2023-02-08T08:54:49.807Z,103028.27
2023-02-08T08:55:53.827Z,103027.45
2023-02-08T08:56:57.992Z,103030.11
2023-02-08T08:58:03.548Z,103030.98
2023-02-08T08:59:10.051Z,103037.86
2023-02-08T09:00:20.405Z,103037.86
2023-02-08T09:01:24.863Z,103024.83
2023-02-08T09:02:29.004Z,103026.44
2023-02-08T09:03:33.214Z,103024.69
2023-02-08T09:04:37.456Z,103018.61
2023-02-08T09:05:43.116Z,103022.98
2023-02-08T09:06:47.331Z,103029.17
2023-02-08T09:07:51.394Z,103022.24
2023-02-08T09:08:55.426Z,103029.26
2023-02-08T09:09:59.355Z,103026.69
2023-02-08T09:11:12.600Z,103024.02
2023-02-08T09:12:18.258Z,103029.26
2023-02-08T09:13:23.964Z,103027.48
2023-02-08T09:14:28.336Z,103026.58
2023-02-08T09:15:34.121Z,103032.73
2023-02-08T09:16:45.918Z,103032.73
2023-02-08T09:17:51.503Z,103031.03
2023-02-08T09:18:58.835Z,103026.77
2023-02-08T09:20:04.961Z,103021.52
2023-02-08T09:21:14.210Z,103021.52
2023-02-08T09:22:21.588Z,103027.70
2023-02-08T09:23:25.916Z,103026.02
2023-02-08T09:24:30.005Z,103026.02
2023-02-08T09:25:34.029Z,103021.49
2023-02-08T09:26:39.005Z,103027.66
2023-02-08T09:27:46.139Z,103027.66
2023-02-08T09:28:50.350Z,103022.44
2023-02-08T09:29:54.413Z,103024.17
2023-02-08T09:31:00.228Z,103029.51
2023-02-08T09:32:04.505Z,103026.86
2023-02-08T09:33:08.847Z,103020.78
2023-02-08T09:34:17.754Z,103010.30
2023-02-08T09:35:23.168Z,103014.73
2023-02-08T09:36:31.947Z,103015.56
2023-02-08T09:37:42.020Z,103014.73
2023-02-08T09:38:52.108Z,103016.51
2023-02-08T09:40:08.732Z,103013.93
2023-02-08T09:41:24.509Z,103017.36
2023-02-08T09:42:44.745Z,103012.11
2023-02-08T09:44:09.522Z,103013.97
2023-02-08T09:45:28.137Z,103012.26
2023-02-08T09:46:36.349Z,103016.64
2023-02-08T09:47:57.703Z,103009.61
2023-02-08T09:49:06.127Z,103012.30
2023-02-08T09:50:38.618Z,103007.09
2023-02-08T09:51:45.819Z,103002.74
2023-02-08T09:53:13.812Z,102999.20
2023-02-08T09:54:35.606Z,102965.00
2023-02-08T09:55:42.510Z,103008.91
2023-02-08T09:56:51.015Z,103001.04
2023-02-08T09:57:59.331Z,102994.97
2023-02-08T09:59:03.573Z,102996.73
2023-02-08T10:02:27.337Z,102998.43
2023-02-08T10:03:34.485Z,102951.05
2023-02-08T10:04:44.614Z,102995.87
2023-02-08T10:05:48.690Z,102987.98
2023-02-08T10:06:52.941Z,102986.26
2023-02-08T10:07:57.271Z,102989.77
2023-02-08T10:09:04.309Z,102991.55
2023-02-08T10:10:14.647Z,102988.05
2023-02-08T10:11:32.073Z,102988.09
2023-02-08T10:12:56.944Z,102982.86
2023-02-08T10:14:10.295Z,102991.59
2023-02-08T10:15:35.098Z,102984.59
2023-02-08T10:16:51.077Z,102983.73
2023-02-08T10:18:04.023Z,102978.48
2023-02-08T10:19:16.574Z,102973.23
2023-02-08T10:20:44.878Z,102981.08
2023-02-08T10:22:00.944Z,102981.05
2023-02-08T10:23:28.414Z,102985.41
2023-02-08T10:24:47.201Z,102988.92
2023-02-08T10:26:03.481Z,102981.93
2023-02-08T10:27:20.229Z,102983.66
2023-02-08T10:28:30.628Z,102983.66
2023-02-08T10:30:02.992Z,102982.82
2023-02-08T10:31:18.916Z,102988.06
2023-02-08T10:32:37.773Z,102988.06
2023-02-08T10:33:44.830Z,102987.16
2023-02-08T10:34:56.618Z,102990.67
2023-02-08T10:36:00.386Z,102983.69
2023-02-08T10:37:19.248Z,102988.05
2023-02-08T10:38:45.277Z,102989.80
2023-02-08T10:39:39.890Z,102982.72
2023-02-08T10:40:45.438Z,102986.28
2023-02-08T10:41:52.654Z,102987.14
2023-02-08T10:43:02.891Z,102985.38
2023-02-08T10:44:18.893Z,102982.77
2023-02-08T10:45:31.634Z,102995.87
2023-02-08T10:46:50.434Z,102995.87
2023-02-08T10:47:59.310Z,102986.27
2023-02-08T10:49:18.573Z,102986.27
2023-02-08T10:50:37.996Z,102981.88
2023-02-08T10:51:43.009Z,102981.83
2023-02-08T10:52:50.633Z,102986.20
2023-02-08T10:53:56.033Z,102997.55
2023-02-08T10:55:02.148Z,102988.76
2023-02-08T10:56:06.676Z,102991.41
2023-02-08T10:57:23.052Z,102983.51
2023-02-08T10:58:27.379Z,102983.51
2023-02-08T10:59:51.304Z,102976.58
2023-02-08T11:00:56.569Z,102987.06
2023-02-08T11:02:00.767Z,102982.66
2023-02-08T11:03:10.581Z,102989.70
2023-02-08T11:04:16.099Z,102989.70
2023-02-08T11:05:23.072Z,102986.19
2023-02-08T11:06:28.249Z,102986.17
2023-02-08T11:07:36.071Z,102986.19
2023-02-08T11:08:42.371Z,102996.66
2023-02-08T11:09:46.596Z,102996.66
2023-02-08T11:11:02.780Z,102991.34
2023-02-08T11:12:08.453Z,102995.73
2023-02-08T11:13:20.879Z,102994.85
2023-02-08T11:14:40.972Z,102994.85
2023-02-08T11:15:56.924Z,102992.30
2023-02-08T11:17:01.322Z,103003.59
2023-02-08T11:18:08.620Z,103003.59
2023-02-08T11:19:21.273Z,102993.13
2023-02-08T11:20:32.489Z,102990.54
2023-02-08T11:21:39.611Z,102987.94
2023-02-08T11:22:46.189Z,102982.73
2023-02-08T11:23:53.041Z,102986.23
2023-02-08T11:25:05.007Z,102993.19
2023-02-08T11:26:27.184Z,102988.83
2023-02-08T11:27:38.977Z,102984.45
2023-02-08T11:28:43.868Z,102992.34
2023-02-08T11:29:47.969Z,102987.98
2023-02-08T11:31:00.883Z,102987.92
2023-02-08T11:32:17.138Z,102989.74
2023-02-08T11:33:21.300Z,102996.71
2023-02-08T11:34:29.895Z,102988.00
2023-02-08T11:35:34.158Z,102988.87
2023-02-08T11:36:46.912Z,102985.36
2023-02-08T11:37:58.075Z,102993.30
2023-02-08T11:39:21.247Z,102991.55
2023-02-08T11:40:39.920Z,102995.91
2023-02-08T11:41:49.434Z,102989.82
2023-02-08T11:42:54.644Z,102989.81
2023-02-08T11:44:06.755Z,102991.53
2023-02-08T11:45:24.229Z,102995.92
2023-02-08T11:46:31.429Z,102991.55
2023-02-08T11:47:39.780Z,102988.91
2023-02-08T11:48:52.434Z,102988.91
2023-02-08T11:49:59.732Z,103005.53
2023-02-08T11:51:04.756Z,103003.77
2023-02-08T11:53:48.362Z,102996.77
2023-02-08T11:54:53.841Z,102991.53
2023-02-08T11:56:18.837Z,102984.56
2023-02-08T11:57:27.272Z,102992.41
2023-02-08T11:58:32.350Z,102987.17
2023-02-08T11:59:36.580Z,102988.95
2023-02-08T12:00:41.721Z,102984.58
2023-02-08T12:01:45.896Z,102988.05
2023-02-08T12:02:51.458Z,102982.80
2023-02-08T12:03:58.358Z,102988.05
2023-02-08T12:05:03.299Z,102985.42
2023-02-08T12:06:27.308Z,102989.81
2023-02-08T12:07:39.717Z,102990.66
2023-02-08T12:09:09.206Z,102980.17
2023-02-08T12:10:38.063Z,102977.53
2023-02-08T12:11:48.759Z,102981.03
2023-02-08T12:12:55.830Z,102986.29
2023-02-08T12:14:02.855Z,102975.77
2023-02-08T12:15:45.028Z,102984.52
2023-02-08T12:16:53.645Z,102981.88
2023-02-08T12:18:06.468Z,102982.75
2023-02-08T12:20:48.723Z,102984.58
2023-02-08T12:21:55.684Z,102987.13
2023-02-08T12:23:08.739Z,102990.61
2023-02-08T12:24:24.351Z,102990.65
2023-02-08T12:25:36.788Z,102984.56
2023-02-08T12:27:01.596Z,102980.20
2023-02-08T12:28:17.397Z,102982.84
2023-02-08T12:29:24.410Z,102978.45
2023-02-08T12:30:43.917Z,102983.67
2023-02-08T12:31:59.795Z,102989.79
2023-02-08T12:33:23.487Z,102983.69
2023-02-08T12:35:07.040Z,102969.65
2023-02-08T12:36:14.385Z,102981.92
2023-02-08T12:37:27.479Z,102973.16
2023-02-08T12:38:40.289Z,102974.87
2023-02-08T12:39:55.888Z,102965.29
2023-02-08T12:41:23.731Z,102967.04
2023-02-08T12:42:36.388Z,102970.55
2023-02-08T12:43:52.153Z,102967.08
2023-02-08T12:45:02.120Z,102981.95
2023-02-08T12:46:09.415Z,102974.05
2023-02-08T12:47:22.171Z,102973.19
2023-02-08T12:48:45.374Z,102968.81
2023-02-08T12:50:04.473Z,102974.97
2023-02-08T12:51:11.491Z,102967.05
2023-02-08T12:52:24.639Z,102975.77
2023-02-08T12:53:31.632Z,102974.02
2023-02-08T12:54:55.082Z,102970.53
2023-02-08T12:56:02.176Z,102970.52
2023-02-08T12:57:07.636Z,102974.91
2023-02-08T12:58:26.543Z,102974.90
2023-02-08T12:59:36.302Z,102979.30
2023-02-08T13:00:43.718Z,102970.55
2023-02-08T13:01:50.470Z,102970.55
2023-02-08T13:03:03.535Z,102974.92
2023-02-08T13:04:13.370Z,102975.80